sensor_id;sensor_type;location;lat;lon;timestamp;pressure;altitude;pressure_sealevel;temperature;humidity
48862;BME280;34681;49.188;-0.374;2023-04-10T00:01:25;101495.53;;;16.79;49.36
48862;BME280;34681;49.188;-0.374;2023-04-10T00:03:51;101496.56;;;16.70;49.46
48862;BME280;34681;49.188;-0.374;2023-04-10T00:06:17;101498.47;;;16.78;49.54
48862;BME280;34681;49.188;-0.374;2023-04-10T00:08:42;101493.81;;;16.78;49.44
48862;BME280;34681;49.188;-0.374;2023-04-10T00:11:07;101493.25;;;16.67;49.83
48862;BME280;34681;49.188;-0.374;2023-04-10T00:13:33;101488.81;;;16.74;49.81
48862;BME280;34681;49.188;-0.374;2023-04-10T00:15:58;101485.97;;;16.57;49.94
48862;BME280;34681;49.188;-0.374;2023-04-10T00:18:23;101488.72;;;16.57;50.22
48862;BME280;34681;49.188;-0.374;2023-04-10T00:20:49;101477.94;;;16.38;50.58
48862;BME280;34681;49.188;-0.374;2023-04-10T00:23:14;101477.59;;;16.33;50.64
48862;BME280;34681;49.188;-0.374;2023-04-10T00:25:39;101481.03;;;16.27;50.69
48862;BME280;34681;49.188;-0.374;2023-04-10T00:28:05;101474.88;;;16.41;50.43
48862;BME280;34681;49.188;-0.374;2023-04-10T00:30:30;101477.78;;;16.32;50.71
48862;BME280;34681;49.188;-0.374;2023-04-10T00:32:55;101476.06;;;16.39;50.23
48862;BME280;34681;49.188;-0.374;2023-04-10T00:35:21;101481.41;;;16.32;50.54
48862;BME280;34681;49.188;-0.374;2023-04-10T00:37:46;101482.41;;;16.23;50.76
48862;BME280;34681;49.188;-0.374;2023-04-10T00:40:12;101479.78;;;16.21;50.59
48862;BME280;34681;49.188;-0.374;2023-04-10T00:42:37;101476.91;;;16.31;50.55
48862;BME280;34681;49.188;-0.374;2023-04-10T00:45:02;101478.28;;;16.35;50.61
48862;BME280;34681;49.188;-0.374;2023-04-10T00:47:28;101469.69;;;16.46;50.22
48862;BME280;34681;49.188;-0.374;2023-04-10T00:49:54;101466.22;;;16.36;50.58
48862;BME280;34681;49.188;-0.374;2023-04-10T00:52:19;101465.88;;;16.39;50.64
48862;BME280;34681;49.188;-0.374;2023-04-10T00:54:45;101461.09;;;16.57;50.02
48862;BME280;34681;49.188;-0.374;2023-04-10T00:57:10;101461.53;;;16.37;50.47
48862;BME280;34681;49.188;-0.374;2023-04-10T00:59:36;101454.66;;;16.33;50.86
48862;BME280;34681;49.188;-0.374;2023-04-10T01:02:02;101434.72;;;16.21;50.96
48862;BME280;34681;49.188;-0.374;2023-04-10T01:04:28;101436.31;;;16.23;51.02
48862;BME280;34681;49.188;-0.374;2023-04-10T01:09:44;101422.81;;;16.20;51.19
48862;BME280;34681;49.188;-0.374;2023-04-10T01:15:05;101418.38;;;16.27;50.97
48862;BME280;34681;49.188;-0.374;2023-04-10T01:20:28;101406.97;;;16.22;51.01
48862;BME280;34681;49.188;-0.374;2023-04-10T01:25:55;101394.41;;;16.44;50.44
48862;BME280;34681;49.188;-0.374;2023-04-10T01:31:13;101394.25;;;16.46;50.43
48862;BME280;34681;49.188;-0.374;2023-04-10T01:33:43;101399.25;;;16.42;50.79
48862;BME280;34681;49.188;-0.374;2023-04-10T01:36:12;101394.25;;;16.46;50.70
48862;BME280;34681;49.188;-0.374;2023-04-10T01:38:42;101388.38;;;16.41;50.86
48862;BME280;34681;49.188;-0.374;2023-04-10T01:41:08;101387.84;;;16.37;50.72
48862;BME280;34681;49.188;-0.374;2023-04-10T01:43:34;101389.44;;;16.40;50.78
48862;BME280;34681;49.188;-0.374;2023-04-10T01:46:02;101383.53;;;16.35;50.83
48862;BME280;34681;49.188;-0.374;2023-04-10T01:48:28;101373.53;;;16.34;50.81
48862;BME280;34681;49.188;-0.374;2023-04-10T01:50:54;101381.06;;;16.15;51.25
48862;BME280;34681;49.188;-0.374;2023-04-10T01:53:20;101379.88;;;16.18;51.18
48862;BME280;34681;49.188;-0.374;2023-04-10T01:55:46;101372.78;;;16.15;51.25
48862;BME280;34681;49.188;-0.374;2023-04-10T01:58:12;101369.72;;;16.35;50.80
48862;BME280;34681;49.188;-0.374;2023-04-10T02:00:39;101369.25;;;16.47;50.37
48862;BME280;34681;49.188;-0.374;2023-04-10T02:03:05;101363.88;;;16.46;50.51
48862;BME280;34681;49.188;-0.374;2023-04-10T02:05:44;101356.28;;;16.32;50.91
48862;BME280;34681;49.188;-0.374;2023-04-10T02:08:30;101346.97;;;16.41;50.63
48862;BME280;34681;49.188;-0.374;2023-04-10T02:11:14;101346.53;;;16.11;51.28
48862;BME280;34681;49.188;-0.374;2023-04-10T02:13:40;101329.31;;;16.17;51.07
48862;BME280;34681;49.188;-0.374;2023-04-10T02:16:06;101334.28;;;16.06;51.24
48862;BME280;34681;49.188;-0.374;2023-04-10T02:18:34;101324.25;;;16.05;51.39
48862;BME280;34681;49.188;-0.374;2023-04-10T02:21:01;101331.69;;;16.04;51.37
48862;BME280;34681;49.188;-0.374;2023-04-10T02:23:27;101333.97;;;16.17;50.89
48862;BME280;34681;49.188;-0.374;2023-04-10T02:25:53;101317.91;;;16.20;50.69
48862;BME280;34681;49.188;-0.374;2023-04-10T02:28:21;101319.56;;;15.97;51.01
48862;BME280;34681;49.188;-0.374;2023-04-10T02:30:46;101328.22;;;16.02;51.04
48862;BME280;34681;49.188;-0.374;2023-04-10T02:33:11;101317.06;;;16.20;50.53
48862;BME280;34681;49.188;-0.374;2023-04-10T02:35:37;101321.88;;;16.10;50.82
48862;BME280;34681;49.188;-0.374;2023-04-10T02:38:02;101318.59;;;16.06;50.80
48862;BME280;34681;49.188;-0.374;2023-04-10T02:40:27;101313.97;;;16.15;50.65
48862;BME280;34681;49.188;-0.374;2023-04-10T02:42:53;101320.38;;;16.32;50.23
48862;BME280;34681;49.188;-0.374;2023-04-10T02:45:18;101318.41;;;16.08;51.00
48862;BME280;34681;49.188;-0.374;2023-04-10T02:47:43;101315.53;;;16.34;50.47
48862;BME280;34681;49.188;-0.374;2023-04-10T02:50:09;101312.09;;;16.32;50.58
48862;BME280;34681;49.188;-0.374;2023-04-10T02:52:35;101309.66;;;16.28;50.69
48862;BME280;34681;49.188;-0.374;2023-04-10T02:55:00;101302.22;;;16.37;50.58
48862;BME280;34681;49.188;-0.374;2023-04-10T02:57:26;101305.00;;;16.37;50.47
48862;BME280;34681;49.188;-0.374;2023-04-10T02:59:52;101295.69;;;16.38;50.79
48862;BME280;34681;49.188;-0.374;2023-04-10T03:02:18;101306.19;;;16.26;50.71
48862;BME280;34681;49.188;-0.374;2023-04-10T03:04:44;101293.78;;;16.31;50.78
48862;BME280;34681;49.188;-0.374;2023-04-10T03:07:09;101296.88;;;16.19;51.04
48862;BME280;34681;49.188;-0.374;2023-04-10T03:09:35;101294.47;;;16.33;50.56
48862;BME280;34681;49.188;-0.374;2023-04-10T03:12:00;101290.84;;;16.24;51.03
48862;BME280;34681;49.188;-0.374;2023-04-10T03:14:26;101291.72;;;16.33;50.83
48862;BME280;34681;49.188;-0.374;2023-04-10T03:16:52;101289.28;;;16.29;50.64
48862;BME280;34681;49.188;-0.374;2023-04-10T03:19:17;101292.59;;;16.33;50.56
48862;BME280;34681;49.188;-0.374;2023-04-10T03:21:42;101295.16;;;16.26;50.98
48862;BME280;34681;49.188;-0.374;2023-04-10T03:24:08;101291.16;;;16.21;51.04
48862;BME280;34681;49.188;-0.374;2023-04-10T03:26:33;101294.13;;;16.36;50.70
48862;BME280;34681;49.188;-0.374;2023-04-10T03:28:58;101289.47;;;16.36;50.71
48862;BME280;34681;49.188;-0.374;2023-04-10T03:31:24;101293.94;;;16.21;51.04
48862;BME280;34681;49.188;-0.374;2023-04-10T03:33:49;101294.63;;;16.15;51.27
48862;BME280;34681;49.188;-0.374;2023-04-10T03:36:15;101305.16;;;16.27;50.88
48862;BME280;34681;49.188;-0.374;2023-04-10T03:38:41;101304.69;;;16.40;50.56
48862;BME280;34681;49.188;-0.374;2023-04-10T03:41:06;101303.09;;;16.46;50.77
48862;BME280;34681;49.188;-0.374;2023-04-10T03:43:31;101289.78;;;16.17;51.46
48862;BME280;34681;49.188;-0.374;2023-04-10T03:45:57;101290.84;;;16.32;50.72
48862;BME280;34681;49.188;-0.374;2023-04-10T03:48:23;101283.06;;;16.19;51.11
48862;BME280;34681;49.188;-0.374;2023-04-10T03:50:52;101289.47;;;16.28;50.97
48862;BME280;34681;49.188;-0.374;2023-04-10T03:53:17;101288.41;;;16.21;51.22
48862;BME280;34681;49.188;-0.374;2023-04-10T03:55:42;101294.66;;;16.39;51.00
48862;BME280;34681;49.188;-0.374;2023-04-10T03:58:08;101284.63;;;16.22;51.33
48862;BME280;34681;49.188;-0.374;2023-04-10T04:00:33;101281.53;;;16.33;51.26
48862;BME280;34681;49.188;-0.374;2023-04-10T04:02:59;101277.69;;;16.10;51.57
48862;BME280;34681;49.188;-0.374;2023-04-10T04:05:25;101283.03;;;16.11;51.75
48862;BME280;34681;49.188;-0.374;2023-04-10T04:07:51;101285.16;;;16.25;51.50
48862;BME280;34681;49.188;-0.374;2023-04-10T04:10:16;101283.25;;;16.42;51.03
48862;BME280;34681;49.188;-0.374;2023-04-10T04:12:41;101285.16;;;16.42;51.13
48862;BME280;34681;49.188;-0.374;2023-04-10T04:15:07;101279.81;;;16.48;51.10
48862;BME280;34681;49.188;-0.374;2023-04-10T04:17:32;101278.25;;;16.54;50.90
48862;BME280;34681;49.188;-0.374;2023-04-10T04:19:58;101262.88;;;16.35;51.52
48862;BME280;34681;49.188;-0.374;2023-04-10T04:22:23;101273.94;;;16.27;51.37
48862;BME280;34681;49.188;-0.374;2023-04-10T04:24:48;101266.50;;;16.36;51.21
48862;BME280;34681;49.188;-0.374;2023-04-10T04:27:14;101267.72;;;16.33;51.56
48862;BME280;34681;49.188;-0.374;2023-04-10T04:29:40;101275.31;;;16.23;51.67
48862;BME280;34681;49.188;-0.374;2023-04-10T04:32:05;101265.28;;;16.30;51.69
48862;BME280;34681;49.188;-0.374;2023-04-10T04:34:30;101267.19;;;16.21;51.81
48862;BME280;34681;49.188;-0.374;2023-04-10T04:36:56;101284.09;;;16.18;52.25
48862;BME280;34681;49.188;-0.374;2023-04-10T04:39:21;101277.03;;;16.24;52.16
48862;BME280;34681;49.188;-0.374;2023-04-10T04:41:47;101279.25;;;16.20;52.47
48862;BME280;34681;49.188;-0.374;2023-04-10T04:44:12;101275.78;;;16.02;52.92
48862;BME280;34681;49.188;-0.374;2023-04-10T04:46:38;101291.50;;;16.10;52.77
48862;BME280;34681;49.188;-0.374;2023-04-10T04:49:03;101297.72;;;16.20;52.88
48862;BME280;34681;49.188;-0.374;2023-04-10T04:51:28;101289.25;;;16.13;52.79
48862;BME280;34681;49.188;-0.374;2023-04-10T04:53:54;101288.22;;;15.98;53.32
48862;BME280;34681;49.188;-0.374;2023-04-10T04:56:19;101287.50;;;16.04;53.19
48862;BME280;34681;49.188;-0.374;2023-04-10T04:58:44;101283.84;;;15.87;53.46
48862;BME280;34681;49.188;-0.374;2023-04-10T05:01:10;101284.69;;;15.80;53.54
48862;BME280;34681;49.188;-0.374;2023-04-10T05:03:35;101286.13;;;15.92;53.07
48862;BME280;34681;49.188;-0.374;2023-04-10T05:06:00;101285.94;;;15.93;52.81
48862;BME280;34681;49.188;-0.374;2023-04-10T05:08:26;101291.31;;;16.03;52.64
48862;BME280;34681;49.188;-0.374;2023-04-10T05:10:51;101300.06;;;15.82;53.12
48862;BME280;34681;49.188;-0.374;2023-04-10T05:13:17;101299.19;;;15.73;53.58
48862;BME280;34681;49.188;-0.374;2023-04-10T05:15:45;101288.84;;;15.84;53.20
48862;BME280;34681;49.188;-0.374;2023-04-10T05:18:10;101295.78;;;15.96;52.86
48862;BME280;34681;49.188;-0.374;2023-04-10T05:20:37;101293.69;;;15.82;53.42
48862;BME280;34681;49.188;-0.374;2023-04-10T05:23:03;101294.94;;;16.12;51.93
48862;BME280;34681;49.188;-0.374;2023-04-10T05:25:28;101292.84;;;15.89;52.31
48862;BME280;34681;49.188;-0.374;2023-04-10T05:27:54;101292.66;;;15.83;52.48
48862;BME280;34681;49.188;-0.374;2023-04-10T05:30:20;101284.22;;;15.92;52.23
48862;BME280;34681;49.188;-0.374;2023-04-10T05:32:45;101294.25;;;16.01;52.15
48862;BME280;34681;49.188;-0.374;2023-04-10T05:35:11;101289.94;;;15.99;52.32
48862;BME280;34681;49.188;-0.374;2023-04-10T05:37:36;101288.22;;;16.06;51.88
48862;BME280;34681;49.188;-0.374;2023-04-10T05:40:02;101287.53;;;16.20;51.62
48862;BME280;34681;49.188;-0.374;2023-04-10T05:42:28;101289.97;;;16.15;51.82
48862;BME280;34681;49.188;-0.374;2023-04-10T05:44:53;101287.53;;;16.20;51.61
48862;BME280;34681;49.188;-0.374;2023-04-10T05:47:18;101295.81;;;16.20;51.62
48862;BME280;34681;49.188;-0.374;2023-04-10T05:49:44;101298.59;;;16.28;51.66
48862;BME280;34681;49.188;-0.374;2023-04-10T05:52:09;101295.81;;;16.20;51.51
48862;BME280;34681;49.188;-0.374;2023-04-10T05:54:34;101279.94;;;16.06;52.18
48862;BME280;34681;49.188;-0.374;2023-04-10T05:57:00;101276.97;;;15.91;52.58
48862;BME280;34681;49.188;-0.374;2023-04-10T05:59:26;101282.31;;;15.85;52.81
48862;BME280;34681;49.188;-0.374;2023-04-10T06:01:51;101283.69;;;15.97;52.81
48862;BME280;34681;49.188;-0.374;2023-04-10T06:04:17;101288.03;;;15.99;52.49
48862;BME280;34681;49.188;-0.374;2023-04-10T06:06:42;101302.56;;;16.26;51.77
48862;BME280;34681;49.188;-0.374;2023-04-10T06:09:08;101286.88;;;16.43;51.71
48862;BME280;34681;49.188;-0.374;2023-04-10T06:11:33;101288.59;;;16.19;52.22
48862;BME280;34681;49.188;-0.374;2023-04-10T06:13:59;101288.75;;;16.18;52.66
48862;BME280;34681;49.188;-0.374;2023-04-10T06:16:25;101285.50;;;16.31;52.20
48862;BME280;34681;49.188;-0.374;2023-04-10T06:18:50;101284.78;;;16.28;52.33
48862;BME280;34681;49.188;-0.374;2023-04-10T06:21:16;101291.03;;;16.31;52.38
48862;BME280;34681;49.188;-0.374;2023-04-10T06:23:42;101291.34;;;16.27;52.39
48862;BME280;34681;49.188;-0.374;2023-04-10T06:26:07;101289.47;;;16.28;52.52
48862;BME280;34681;49.188;-0.374;2023-04-10T06:28:33;101282.00;;;16.12;52.88
48862;BME280;34681;49.188;-0.374;2023-04-10T06:30:58;101277.72;;;16.18;53.01
48862;BME280;34681;49.188;-0.374;2023-04-10T06:33:27;101279.44;;;16.19;52.72
48862;BME280;34681;49.188;-0.374;2023-04-10T06:35:52;101280.09;;;16.05;52.82
48862;BME280;34681;49.188;-0.374;2023-04-10T06:38:17;101284.63;;;16.30;52.36
48862;BME280;34681;49.188;-0.374;2023-04-10T06:40:43;101287.75;;;16.51;52.12
48862;BME280;34681;49.188;-0.374;2023-04-10T06:43:08;101279.28;;;16.45;52.16
48862;BME280;34681;49.188;-0.374;2023-04-10T06:45:33;101275.47;;;16.46;52.30
48862;BME280;34681;49.188;-0.374;2023-04-10T06:47:59;101274.97;;;16.42;52.16
48862;BME280;34681;49.188;-0.374;2023-04-10T06:50:24;101279.28;;;16.53;52.08
48862;BME280;34681;49.188;-0.374;2023-04-10T06:52:50;101282.91;;;16.45;52.37
48862;BME280;34681;49.188;-0.374;2023-04-10T06:55:17;101264.28;;;16.55;52.24
48862;BME280;34681;49.188;-0.374;2023-04-10T06:57:42;101279.31;;;16.77;51.67
48862;BME280;34681;49.188;-0.374;2023-04-10T07:00:08;101275.69;;;16.69;52.01
48862;BME280;34681;49.188;-0.374;2023-04-10T07:02:34;101268.94;;;16.71;52.19
48862;BME280;34681;49.188;-0.374;2023-04-10T07:04:59;101284.31;;;16.90;51.92
48862;BME280;34681;49.188;-0.374;2023-04-10T07:07:24;101281.75;;;16.80;52.23
48862;BME280;34681;49.188;-0.374;2023-04-10T07:09:50;101274.66;;;16.70;52.43
48862;BME280;34681;49.188;-0.374;2023-04-10T07:12:16;101275.19;;;16.81;51.95
48862;BME280;34681;49.188;-0.374;2023-04-10T07:14:41;101266.69;;;16.58;52.63
48862;BME280;34681;49.188;-0.374;2023-04-10T07:17:07;101262.53;;;16.79;52.73
48862;BME280;34681;49.188;-0.374;2023-04-10T07:19:33;101261.88;;;16.69;52.75
48862;BME280;34681;49.188;-0.374;2023-04-10T07:21:58;101254.97;;;16.73;52.82
48862;BME280;34681;49.188;-0.374;2023-04-10T07:24:24;101243.06;;;16.72;52.88
48862;BME280;34681;49.188;-0.374;2023-04-10T07:26:50;101242.88;;;16.66;53.06
48862;BME280;34681;49.188;-0.374;2023-04-10T07:29:15;101238.53;;;16.79;52.85
48862;BME280;34681;49.188;-0.374;2023-04-10T07:31:41;101238.38;;;16.89;52.83
48862;BME280;34681;49.188;-0.374;2023-04-10T07:34:06;101258.59;;;16.65;53.37
48862;BME280;34681;49.188;-0.374;2023-04-10T07:36:32;101254.59;;;16.92;52.65
48862;BME280;34681;49.188;-0.374;2023-04-10T07:38:57;101249.25;;;16.91;52.36
48862;BME280;34681;49.188;-0.374;2023-04-10T07:41:23;101248.72;;;16.79;53.00
48862;BME280;34681;49.188;-0.374;2023-04-10T07:43:49;101238.22;;;16.82;52.66
48862;BME280;34681;49.188;-0.374;2023-04-10T07:46:15;101235.94;;;16.86;53.18
48862;BME280;34681;49.188;-0.374;2023-04-10T07:48:40;101242.25;;;17.19;52.59
48862;BME280;34681;49.188;-0.374;2023-04-10T07:51:06;101249.91;;;17.01;52.95
48862;BME280;34681;49.188;-0.374;2023-04-10T07:53:34;101249.38;;;17.13;52.95
48862;BME280;34681;49.188;-0.374;2023-04-10T07:56:00;101239.06;;;17.47;52.32
48862;BME280;34681;49.188;-0.374;2023-04-10T07:58:25;101238.19;;;17.46;52.28
48862;BME280;34681;49.188;-0.374;2023-04-10T08:00:51;101236.91;;;17.57;52.09
48862;BME280;34681;49.188;-0.374;2023-04-10T08:03:16;101235.44;;;17.77;51.84
48862;BME280;34681;49.188;-0.374;2023-04-10T08:05:45;101234.41;;;17.78;51.85
48862;BME280;34681;49.188;-0.374;2023-04-10T08:08:10;101232.44;;;17.87;51.53
48862;BME280;34681;49.188;-0.374;2023-04-10T08:10:36;101235.28;;;18.02;51.61
48862;BME280;34681;49.188;-0.374;2023-04-10T08:13:02;101231.41;;;18.11;51.67
48862;BME280;34681;49.188;-0.374;2023-04-10T08:15:28;101231.13;;;18.06;51.71
48862;BME280;34681;49.188;-0.374;2023-04-10T08:17:53;101234.09;;;18.04;52.31
48862;BME280;34681;49.188;-0.374;2023-04-10T08:20:19;101234.69;;;18.14;52.22
48862;BME280;34681;49.188;-0.374;2023-04-10T08:22:44;101229.56;;;17.80;52.88
48862;BME280;34681;49.188;-0.374;2023-04-10T08:25:09;101232.38;;;17.95;52.99
48862;BME280;34681;49.188;-0.374;2023-04-10T08:27:35;101229.75;;;18.24;52.40
48862;BME280;34681;49.188;-0.374;2023-04-10T08:30:00;101231.09;;;18.29;52.58
48862;BME280;34681;49.188;-0.374;2023-04-10T08:32:26;101221.34;;;18.78;51.86
48862;BME280;34681;49.188;-0.374;2023-04-10T08:34:52;101223.66;;;18.90;51.84
48862;BME280;34681;49.188;-0.374;2023-04-10T08:37:17;101222.22;;;19.08;51.49
48862;BME280;34681;49.188;-0.374;2023-04-10T08:39:43;101220.78;;;19.27;50.83
48862;BME280;34681;49.188;-0.374;2023-04-10T08:42:09;101219.63;;;18.92;51.45
48862;BME280;34681;49.188;-0.374;2023-04-10T08:44:34;101215.50;;;18.73;52.41
48862;BME280;34681;49.188;-0.374;2023-04-10T08:47:01;101221.25;;;18.49;52.66
48862;BME280;34681;49.188;-0.374;2023-04-10T08:49:55;101220.47;;;18.78;52.56
48862;BME280;34681;49.188;-0.374;2023-04-10T08:52:23;101220.56;;;18.85;52.70
48862;BME280;34681;49.188;-0.374;2023-04-10T08:54:54;101228.75;;;18.63;53.14
48862;BME280;34681;49.188;-0.374;2023-04-10T08:57:20;101223.97;;;18.34;54.96
48862;BME280;34681;49.188;-0.374;2023-04-10T08:59:47;101238.13;;;18.39;55.12
48862;BME280;34681;49.188;-0.374;2023-04-10T09:02:13;101241.16;;;18.07;56.65
48862;BME280;34681;49.188;-0.374;2023-04-10T09:04:38;101243.31;;;17.96;57.70
48862;BME280;34681;49.188;-0.374;2023-04-10T09:07:04;101225.81;;;18.19;57.75
48862;BME280;34681;49.188;-0.374;2023-04-10T09:09:32;101225.75;;;18.50;57.65
48862;BME280;34681;49.188;-0.374;2023-04-10T09:11:59;101225.63;;;18.66;57.82
48862;BME280;34681;49.188;-0.374;2023-04-10T09:14:30;101237.16;;;18.32;58.84
48862;BME280;34681;49.188;-0.374;2023-04-10T09:17:21;101232.94;;;18.36;59.23
48862;BME280;34681;49.188;-0.374;2023-04-10T09:19:51;101238.06;;;18.47;59.45
48862;BME280;34681;49.188;-0.374;2023-04-10T09:22:18;101237.88;;;18.49;59.59
48862;BME280;34681;49.188;-0.374;2023-04-10T09:24:52;101225.47;;;18.22;60.66
48862;BME280;34681;49.188;-0.374;2023-04-10T09:27:30;101229.69;;;18.33;61.12
48862;BME280;34681;49.188;-0.374;2023-04-10T09:29:56;101228.66;;;18.34;61.34
48862;BME280;34681;49.188;-0.374;2023-04-10T09:32:42;101222.50;;;18.46;61.41
48862;BME280;34681;49.188;-0.374;2023-04-10T09:35:10;101223.53;;;18.45;61.70
48862;BME280;34681;49.188;-0.374;2023-04-10T09:37:36;101217.19;;;18.37;62.04
48862;BME280;34681;49.188;-0.374;2023-04-10T09:40:02;101210.88;;;18.05;63.10
48862;BME280;34681;49.188;-0.374;2023-04-10T09:42:33;101211.09;;;18.18;62.88
48862;BME280;34681;49.188;-0.374;2023-04-10T09:44:59;101212.97;;;18.64;61.70
48862;BME280;34681;49.188;-0.374;2023-04-10T09:47:26;101210.56;;;18.61;61.54
48862;BME280;34681;49.188;-0.374;2023-04-10T09:49:52;101213.25;;;18.54;61.85
48862;BME280;34681;49.188;-0.374;2023-04-10T09:52:19;101206.25;;;18.81;61.17
48862;BME280;34681;49.188;-0.374;2023-04-10T09:54:44;101196.78;;;18.90;60.71
48862;BME280;34681;49.188;-0.374;2023-04-10T09:57:13;101201.38;;;18.98;60.44
48862;BME280;34681;49.188;-0.374;2023-04-10T09:59:40;101202.22;;;18.84;60.98
48862;BME280;34681;49.188;-0.374;2023-04-10T10:02:08;101201.47;;;18.90;60.80
48862;BME280;34681;49.188;-0.374;2023-04-10T10:04:35;101199.06;;;19.01;60.70
48862;BME280;34681;49.188;-0.374;2023-04-10T10:07:01;101194.78;;;19.14;60.30
48862;BME280;34681;49.188;-0.374;2023-04-10T10:09:27;101200.97;;;18.86;61.06
48862;BME280;34681;49.188;-0.374;2023-04-10T10:11:53;101196.22;;;18.80;61.37
48862;BME280;34681;49.188;-0.374;2023-04-10T10:14:20;101198.88;;;18.73;61.91
48862;BME280;34681;49.188;-0.374;2023-04-10T10:16:49;101207.59;;;18.47;63.06
48862;BME280;34681;49.188;-0.374;2023-04-10T10:22:21;101209.03;;;18.20;63.94
48862;BME280;34681;49.188;-0.374;2023-04-10T10:24:49;101204.63;;;18.49;63.45
48862;BME280;34681;49.188;-0.374;2023-04-10T10:27:22;101199.81;;;18.43;63.65
48862;BME280;34681;49.188;-0.374;2023-04-10T10:29:48;101200.28;;;18.32;64.24
48862;BME280;34681;49.188;-0.374;2023-04-10T10:32:16;101195.66;;;18.01;64.94
48862;BME280;34681;49.188;-0.374;2023-04-10T10:34:43;101193.88;;;18.08;64.78
48862;BME280;34681;49.188;-0.374;2023-04-10T10:37:10;101197.78;;;18.22;64.38
48862;BME280;34681;49.188;-0.374;2023-04-10T10:39:56;101182.50;;;18.26;64.47
48862;BME280;34681;49.188;-0.374;2023-04-10T10:42:35;101180.59;;;18.04;64.83
48862;BME280;34681;49.188;-0.374;2023-04-10T10:45:10;101173.53;;;18.01;65.19
48862;BME280;34681;49.188;-0.374;2023-04-10T10:47:42;101164.59;;;17.91;65.17
48862;BME280;34681;49.188;-0.374;2023-04-10T10:50:09;101174.63;;;18.15;64.54
48862;BME280;34681;49.188;-0.374;2023-04-10T10:52:44;101182.69;;;18.24;64.06
48862;BME280;34681;49.188;-0.374;2023-04-10T10:57:52;101176.09;;;18.03;64.43
48862;BME280;34681;49.188;-0.374;2023-04-10T11:00:19;101172.47;;;18.02;64.72
48862;BME280;34681;49.188;-0.374;2023-04-10T11:11:04;101165.41;;;18.22;64.20
48862;BME280;34681;49.188;-0.374;2023-04-10T11:13:31;101147.19;;;18.43;63.65
48862;BME280;34681;49.188;-0.374;2023-04-10T11:15:57;101151.38;;;18.76;62.80
48862;BME280;34681;49.188;-0.374;2023-04-10T11:21:13;101148.22;;;19.60;60.94
48862;BME280;34681;49.188;-0.374;2023-04-10T11:32:00;101148.41;;;19.07;62.26
48862;BME280;34681;49.188;-0.374;2023-04-10T11:34:25;101153.94;;;19.07;62.64
48862;BME280;34681;49.188;-0.374;2023-04-10T11:37:00;101153.38;;;18.97;63.07
48862;BME280;34681;49.188;-0.374;2023-04-10T11:39:29;101142.09;;;18.84;64.13
48862;BME280;34681;49.188;-0.374;2023-04-10T11:41:54;101145.22;;;19.11;63.75
48862;BME280;34681;49.188;-0.374;2023-04-10T11:46:51;101153.00;;;18.86;64.91
48862;BME280;34681;49.188;-0.374;2023-04-10T11:49:19;101160.34;;;19.08;64.41
48862;BME280;34681;49.188;-0.374;2023-04-10T11:51:47;101146.97;;;18.97;64.89
48862;BME280;34681;49.188;-0.374;2023-04-10T11:54:15;101145.44;;;18.94;64.93
48862;BME280;34681;49.188;-0.374;2023-04-10T11:56:45;101144.78;;;18.92;65.25
48862;BME280;34681;49.188;-0.374;2023-04-10T11:59:18;101136.34;;;19.00;65.39
48862;BME280;34681;49.188;-0.374;2023-04-10T12:01:44;101131.66;;;19.16;64.81
48862;BME280;34681;49.188;-0.374;2023-04-10T12:04:17;101132.75;;;19.36;64.75
48862;BME280;34681;49.188;-0.374;2023-04-10T12:06:48;101121.22;;;19.18;65.38
48862;BME280;34681;49.188;-0.374;2023-04-10T12:09:15;101127.56;;;18.82;65.88
48862;BME280;34681;49.188;-0.374;2023-04-10T12:14:13;101122.44;;;18.41;66.97
48862;BME280;34681;49.188;-0.374;2023-04-10T12:16:38;101130.53;;;18.28;67.61
48862;BME280;34681;49.188;-0.374;2023-04-10T12:19:04;101145.09;;;18.60;66.85
48862;BME280;34681;49.188;-0.374;2023-04-10T12:21:29;101177.41;;;17.92;66.90
48862;BME280;34681;49.188;-0.374;2023-04-10T12:23:55;101176.00;;;17.34;66.34
48862;BME280;34681;49.188;-0.374;2023-04-10T12:26:21;101170.91;;;17.15;66.17
48862;BME280;34681;49.188;-0.374;2023-04-10T12:28:51;101177.91;;;16.86;65.71
48862;BME280;34681;49.188;-0.374;2023-04-10T12:31:17;101175.84;;;16.88;65.94
48862;BME280;34681;49.188;-0.374;2023-04-10T12:33:44;101166.97;;;17.01;65.24
48862;BME280;34681;49.188;-0.374;2023-04-10T12:36:20;101183.94;;;16.98;65.89
48862;BME280;34681;49.188;-0.374;2023-04-10T12:38:46;101181.78;;;17.16;65.24
48862;BME280;34681;49.188;-0.374;2023-04-10T12:41:11;101183.44;;;17.33;64.73
48862;BME280;34681;49.188;-0.374;2023-04-10T12:43:39;101182.34;;;17.42;64.46
48862;BME280;34681;49.188;-0.374;2023-04-10T12:46:06;101177.94;;;17.25;64.33
48862;BME280;34681;49.188;-0.374;2023-04-10T12:48:32;101184.44;;;16.93;64.76
48862;BME280;34681;49.188;-0.374;2023-04-10T12:50:58;101176.38;;;16.83;65.22
48862;BME280;34681;49.188;-0.374;2023-04-10T12:53:24;101178.34;;;17.45;64.33
48862;BME280;34681;49.188;-0.374;2023-04-10T12:56:15;101188.88;;;17.50;63.81
48862;BME280;34681;49.188;-0.374;2023-04-10T12:58:42;101187.25;;;17.32;64.31
48862;BME280;34681;49.188;-0.374;2023-04-10T13:01:08;101195.66;;;17.47;63.75
48862;BME280;34681;49.188;-0.374;2023-04-10T13:03:36;101188.50;;;17.53;63.97
48862;BME280;34681;49.188;-0.374;2023-04-10T13:06:03;101197.47;;;17.63;64.12
48862;BME280;34681;49.188;-0.374;2023-04-10T13:08:29;101195.19;;;17.66;64.47
48862;BME280;34681;49.188;-0.374;2023-04-10T13:10:57;101200.44;;;17.53;64.36
48862;BME280;34681;49.188;-0.374;2023-04-10T13:13:27;101201.75;;;17.74;64.27
48862;BME280;34681;49.188;-0.374;2023-04-10T13:15:52;101203.91;;;17.86;64.04
48862;BME280;34681;49.188;-0.374;2023-04-10T13:18:17;101195.94;;;18.14;63.32
48862;BME280;34681;49.188;-0.374;2023-04-10T13:20:43;101196.84;;;17.84;63.90
48862;BME280;34681;49.188;-0.374;2023-04-10T13:23:08;101185.31;;;17.95;64.01